sensor_id;sensor_type;location;lat;lon;timestamp;P1;durP1;ratioP1;P2;durP2;ratioP2
26578;SDS011;14227;47.674;19.320;2023-07-31T00:00:26;25.85;;;13.63;;
26578;SDS011;14227;47.674;19.320;2023-07-31T00:02:52;24.52;;;13.13;;
26578;SDS011;14227;47.674;19.320;2023-07-31T00:05:19;21.75;;;11.25;;
26578;SDS011;14227;47.674;19.320;2023-07-31T00:07:44;20.90;;;10.90;;
26578;SDS011;14227;47.674;19.320;2023-07-31T00:10:10;26.63;;;11.95;;
26578;SDS011;14227;47.674;19.320;2023-07-31T00:12:35;13.05;;;8.57;;
26578;SDS011;14227;47.674;19.320;2023-07-31T00:15:02;21.63;;;10.07;;
26578;SDS011;14227;47.674;19.320;2023-07-31T00:17:29;13.43;;;9.35;;
26578;SDS011;14227;47.674;19.320;2023-07-31T00:19:55;27.65;;;14.00;;
26578;SDS011;14227;47.674;19.320;2023-07-31T00:22:20;22.25;;;11.02;;
26578;SDS011;14227;47.674;19.320;2023-07-31T00:24:46;18.75;;;11.50;;
26578;SDS011;14227;47.674;19.320;2023-07-31T00:27:12;19.60;;;12.05;;
26578;SDS011;14227;47.674;19.320;2023-07-31T00:29:37;19.25;;;10.93;;
26578;SDS011;14227;47.674;19.320;2023-07-31T00:32:03;17.70;;;12.07;;
26578;SDS011;14227;47.674;19.320;2023-07-31T00:34:29;28.40;;;14.88;;
26578;SDS011;14227;47.674;19.320;2023-07-31T00:36:55;16.48;;;10.50;;
26578;SDS011;14227;47.674;19.320;2023-07-31T00:39:21;25.80;;;13.25;;
26578;SDS011;14227;47.674;19.320;2023-07-31T00:41:46;19.58;;;9.98;;
26578;SDS011;14227;47.674;19.320;2023-07-31T00:44:12;25.73;;;13.25;;
26578;SDS011;14227;47.674;19.320;2023-07-31T00:46:38;36.60;;;14.70;;
26578;SDS011;14227;47.674;19.320;2023-07-31T00:49:03;22.20;;;11.73;;
26578;SDS011;14227;47.674;19.320;2023-07-31T00:51:30;18.00;;;10.65;;
26578;SDS011;14227;47.674;19.320;2023-07-31T00:53:56;17.48;;;9.30;;
26578;SDS011;14227;47.674;19.320;2023-07-31T00:56:23;18.50;;;10.57;;
26578;SDS011;14227;47.674;19.320;2023-07-31T00:58:50;30.75;;;13.93;;
26578;SDS011;14227;47.674;19.320;2023-07-31T01:01:15;76.50;;;18.65;;
26578;SDS011;14227;47.674;19.320;2023-07-31T01:03:41;45.97;;;17.88;;
26578;SDS011;14227;47.674;19.320;2023-07-31T01:08:52;19.25;;;9.70;;
26578;SDS011;14227;47.674;19.320;2023-07-31T01:13:52;26.77;;;12.73;;
26578;SDS011;14227;47.674;19.320;2023-07-31T01:16:19;19.77;;;11.77;;
26578;SDS011;14227;47.674;19.320;2023-07-31T01:18:44;21.40;;;11.48;;
26578;SDS011;14227;47.674;19.320;2023-07-31T01:24:20;31.05;;;13.82;;
26578;SDS011;14227;47.674;19.320;2023-07-31T01:26:50;22.52;;;13.02;;
26578;SDS011;14227;47.674;19.320;2023-07-31T01:29:24;24.45;;;10.82;;
26578;SDS011;14227;47.674;19.320;2023-07-31T01:32:03;31.45;;;11.38;;
26578;SDS011;14227;47.674;19.320;2023-07-31T01:34:31;25.00;;;12.65;;
26578;SDS011;14227;47.674;19.320;2023-07-31T01:36:58;17.35;;;10.80;;
26578;SDS011;14227;47.674;19.320;2023-07-31T01:39:24;27.77;;;13.90;;
26578;SDS011;14227;47.674;19.320;2023-07-31T01:41:49;25.77;;;14.00;;
26578;SDS011;14227;47.674;19.320;2023-07-31T01:44:16;38.25;;;17.05;;
26578;SDS011;14227;47.674;19.320;2023-07-31T01:46:41;23.20;;;12.75;;
26578;SDS011;14227;47.674;19.320;2023-07-31T01:49:07;59.08;;;20.60;;
26578;SDS011;14227;47.674;19.320;2023-07-31T01:51:33;23.25;;;11.82;;
26578;SDS011;14227;47.674;19.320;2023-07-31T01:54:01;135.13;;;21.80;;
26578;SDS011;14227;47.674;19.320;2023-07-31T01:56:27;138.65;;;26.08;;
26578;SDS011;14227;47.674;19.320;2023-07-31T01:58:53;31.00;;;12.07;;
26578;SDS011;14227;47.674;19.320;2023-07-31T02:01:19;48.33;;;17.63;;
26578;SDS011;14227;47.674;19.320;2023-07-31T02:03:45;34.72;;;15.85;;
26578;SDS011;14227;47.674;19.320;2023-07-31T02:06:10;38.70;;;17.92;;
26578;SDS011;14227;47.674;19.320;2023-07-31T02:08:36;43.55;;;20.17;;
26578;SDS011;14227;47.674;19.320;2023-07-31T02:11:02;50.42;;;23.92;;
26578;SDS011;14227;47.674;19.320;2023-07-31T02:13:28;46.80;;;18.95;;
26578;SDS011;14227;47.674;19.320;2023-07-31T02:15:54;33.92;;;14.93;;
26578;SDS011;14227;47.674;19.320;2023-07-31T02:18:19;28.42;;;16.05;;
26578;SDS011;14227;47.674;19.320;2023-07-31T02:20:52;21.50;;;12.25;;
26578;SDS011;14227;47.674;19.320;2023-07-31T02:23:18;26.10;;;14.05;;
26578;SDS011;14227;47.674;19.320;2023-07-31T02:25:44;20.73;;;13.88;;
26578;SDS011;14227;47.674;19.320;2023-07-31T02:28:10;25.13;;;13.63;;
26578;SDS011;14227;47.674;19.320;2023-07-31T02:30:36;25.35;;;16.33;;
26578;SDS011;14227;47.674;19.320;2023-07-31T02:33:02;28.30;;;15.98;;
26578;SDS011;14227;47.674;19.320;2023-07-31T02:35:28;25.85;;;14.45;;
26578;SDS011;14227;47.674;19.320;2023-07-31T02:37:54;23.58;;;12.80;;
26578;SDS011;14227;47.674;19.320;2023-07-31T02:40:20;35.25;;;18.00;;
26578;SDS011;14227;47.674;19.320;2023-07-31T02:42:45;27.75;;;15.65;;
26578;SDS011;14227;47.674;19.320;2023-07-31T02:45:11;38.90;;;19.08;;
26578;SDS011;14227;47.674;19.320;2023-07-31T02:47:37;39.17;;;17.15;;
26578;SDS011;14227;47.674;19.320;2023-07-31T02:50:03;44.00;;;20.23;;
26578;SDS011;14227;47.674;19.320;2023-07-31T02:52:29;31.80;;;16.70;;
26578;SDS011;14227;47.674;19.320;2023-07-31T02:54:54;64.82;;;22.42;;
26578;SDS011;14227;47.674;19.320;2023-07-31T02:57:20;28.85;;;17.52;;
26578;SDS011;14227;47.674;19.320;2023-07-31T02:59:46;60.15;;;24.70;;
26578;SDS011;14227;47.674;19.320;2023-07-31T03:02:11;40.40;;;20.55;;
26578;SDS011;14227;47.674;19.320;2023-07-31T03:04:38;45.55;;;22.33;;
26578;SDS011;14227;47.674;19.320;2023-07-31T03:07:04;40.17;;;22.92;;
26578;SDS011;14227;47.674;19.320;2023-07-31T03:09:30;35.20;;;22.13;;
26578;SDS011;14227;47.674;19.320;2023-07-31T03:11:55;30.48;;;18.40;;
26578;SDS011;14227;47.674;19.320;2023-07-31T03:14:21;26.15;;;20.05;;
26578;SDS011;14227;47.674;19.320;2023-07-31T03:16:47;29.40;;;22.52;;
26578;SDS011;14227;47.674;19.320;2023-07-31T03:19:13;38.78;;;23.85;;
26578;SDS011;14227;47.674;19.320;2023-07-31T03:21:39;30.88;;;20.63;;
26578;SDS011;14227;47.674;19.320;2023-07-31T03:24:04;33.88;;;23.70;;
26578;SDS011;14227;47.674;19.320;2023-07-31T03:26:33;25.80;;;19.80;;
26578;SDS011;14227;47.674;19.320;2023-07-31T03:28:59;28.40;;;19.58;;
26578;SDS011;14227;47.674;19.320;2023-07-31T03:31:25;31.13;;;19.77;;
26578;SDS011;14227;47.674;19.320;2023-07-31T03:33:50;24.65;;;16.40;;
26578;SDS011;14227;47.674;19.320;2023-07-31T03:36:16;27.90;;;17.42;;
26578;SDS011;14227;47.674;19.320;2023-07-31T03:38:41;24.27;;;16.67;;
26578;SDS011;14227;47.674;19.320;2023-07-31T03:41:07;28.23;;;16.05;;
26578;SDS011;14227;47.674;19.320;2023-07-31T03:43:33;19.15;;;12.88;;
26578;SDS011;14227;47.674;19.320;2023-07-31T03:45:59;19.67;;;12.85;;
26578;SDS011;14227;47.674;19.320;2023-07-31T03:48:25;19.20;;;13.10;;
26578;SDS011;14227;47.674;19.320;2023-07-31T03:50:51;20.70;;;13.50;;
26578;SDS011;14227;47.674;19.320;2023-07-31T03:53:17;19.17;;;13.73;;
26578;SDS011;14227;47.674;19.320;2023-07-31T03:55:43;15.38;;;12.88;;
26578;SDS011;14227;47.674;19.320;2023-07-31T03:58:08;18.13;;;12.70;;
26578;SDS011;14227;47.674;19.320;2023-07-31T04:00:34;15.18;;;11.35;;
26578;SDS011;14227;47.674;19.320;2023-07-31T04:03:00;16.00;;;12.57;;
26578;SDS011;14227;47.674;19.320;2023-07-31T04:05:25;15.65;;;11.73;;
26578;SDS011;14227;47.674;19.320;2023-07-31T04:07:51;18.83;;;10.95;;
26578;SDS011;14227;47.674;19.320;2023-07-31T04:10:17;11.88;;;10.07;;
26578;SDS011;14227;47.674;19.320;2023-07-31T04:12:42;15.60;;;9.77;;
26578;SDS011;14227;47.674;19.320;2023-07-31T04:15:08;12.05;;;8.93;;
26578;SDS011;14227;47.674;19.320;2023-07-31T04:17:34;12.70;;;7.50;;
26578;SDS011;14227;47.674;19.320;2023-07-31T04:20:00;10.45;;;7.38;;
26578;SDS011;14227;47.674;19.320;2023-07-31T04:22:26;11.00;;;7.93;;
26578;SDS011;14227;47.674;19.320;2023-07-31T04:24:52;10.63;;;7.65;;
26578;SDS011;14227;47.674;19.320;2023-07-31T04:27:17;13.32;;;6.80;;
26578;SDS011;14227;47.674;19.320;2023-07-31T04:29:43;15.85;;;6.95;;
26578;SDS011;14227;47.674;19.320;2023-07-31T04:32:11;8.05;;;6.35;;
26578;SDS011;14227;47.674;19.320;2023-07-31T04:34:36;12.00;;;6.63;;
26578;SDS011;14227;47.674;19.320;2023-07-31T04:37:02;9.25;;;6.38;;
26578;SDS011;14227;47.674;19.320;2023-07-31T04:39:28;7.88;;;6.55;;
26578;SDS011;14227;47.674;19.320;2023-07-31T04:41:54;8.13;;;6.97;;
26578;SDS011;14227;47.674;19.320;2023-07-31T04:44:19;9.60;;;5.85;;
26578;SDS011;14227;47.674;19.320;2023-07-31T04:46:45;14.35;;;6.32;;
26578;SDS011;14227;47.674;19.320;2023-07-31T04:49:11;6.10;;;5.50;;
26578;SDS011;14227;47.674;19.320;2023-07-31T04:51:37;7.45;;;5.32;;
26578;SDS011;14227;47.674;19.320;2023-07-31T04:54:02;9.85;;;5.63;;
26578;SDS011;14227;47.674;19.320;2023-07-31T04:56:28;9.88;;;5.43;;
26578;SDS011;14227;47.674;19.320;2023-07-31T04:58:54;12.77;;;5.03;;
26578;SDS011;14227;47.674;19.320;2023-07-31T05:01:20;6.40;;;4.30;;
26578;SDS011;14227;47.674;19.320;2023-07-31T05:03:45;6.55;;;5.30;;
26578;SDS011;14227;47.674;19.320;2023-07-31T05:06:11;7.25;;;4.78;;
26578;SDS011;14227;47.674;19.320;2023-07-31T05:08:38;7.60;;;4.40;;
26578;SDS011;14227;47.674;19.320;2023-07-31T05:11:04;8.55;;;3.92;;
26578;SDS011;14227;47.674;19.320;2023-07-31T05:13:30;7.03;;;4.03;;
26578;SDS011;14227;47.674;19.320;2023-07-31T05:15:55;5.97;;;4.00;;
26578;SDS011;14227;47.674;19.320;2023-07-31T05:18:21;5.15;;;3.47;;
26578;SDS011;14227;47.674;19.320;2023-07-31T05:20:47;4.70;;;3.42;;
26578;SDS011;14227;47.674;19.320;2023-07-31T05:23:12;8.70;;;3.38;;
26578;SDS011;14227;47.674;19.320;2023-07-31T05:25:38;5.03;;;3.13;;
26578;SDS011;14227;47.674;19.320;2023-07-31T05:28:04;5.68;;;3.60;;
26578;SDS011;14227;47.674;19.320;2023-07-31T05:30:30;7.25;;;2.90;;
26578;SDS011;14227;47.674;19.320;2023-07-31T05:32:56;6.63;;;3.00;;
26578;SDS011;14227;47.674;19.320;2023-07-31T05:35:22;5.07;;;2.85;;
26578;SDS011;14227;47.674;19.320;2023-07-31T05:37:47;4.40;;;2.80;;
26578;SDS011;14227;47.674;19.320;2023-07-31T05:40:14;5.38;;;3.17;;
26578;SDS011;14227;47.674;19.320;2023-07-31T05:42:40;10.07;;;3.00;;
26578;SDS011;14227;47.674;19.320;2023-07-31T05:45:06;11.88;;;2.90;;
26578;SDS011;14227;47.674;19.320;2023-07-31T05:47:34;5.82;;;2.92;;
26578;SDS011;14227;47.674;19.320;2023-07-31T05:50:00;4.55;;;2.95;;
26578;SDS011;14227;47.674;19.320;2023-07-31T05:52:25;6.13;;;3.10;;
26578;SDS011;14227;47.674;19.320;2023-07-31T05:54:51;4.53;;;2.50;;
26578;SDS011;14227;47.674;19.320;2023-07-31T05:57:17;3.97;;;2.60;;
26578;SDS011;14227;47.674;19.320;2023-07-31T05:59:42;4.10;;;2.75;;
26578;SDS011;14227;47.674;19.320;2023-07-31T06:02:08;7.22;;;2.55;;
26578;SDS011;14227;47.674;19.320;2023-07-31T06:04:34;3.70;;;2.15;;
26578;SDS011;14227;47.674;19.320;2023-07-31T06:07:00;3.72;;;2.38;;
26578;SDS011;14227;47.674;19.320;2023-07-31T06:09:25;4.32;;;2.63;;
26578;SDS011;14227;47.674;19.320;2023-07-31T06:11:51;6.95;;;2.67;;
26578;SDS011;14227;47.674;19.320;2023-07-31T06:14:17;6.63;;;2.20;;
26578;SDS011;14227;47.674;19.320;2023-07-31T06:16:46;5.53;;;2.53;;
26578;SDS011;14227;47.674;19.320;2023-07-31T06:19:11;5.20;;;2.10;;
26578;SDS011;14227;47.674;19.320;2023-07-31T06:21:37;4.60;;;2.33;;
26578;SDS011;14227;47.674;19.320;2023-07-31T06:24:04;5.85;;;2.80;;
26578;SDS011;14227;47.674;19.320;2023-07-31T06:26:32;4.70;;;2.35;;
26578;SDS011;14227;47.674;19.320;2023-07-31T06:28:58;6.80;;;2.03;;
26578;SDS011;14227;47.674;19.320;2023-07-31T06:31:24;6.20;;;2.70;;
26578;SDS011;14227;47.674;19.320;2023-07-31T06:33:50;7.47;;;2.22;;
26578;SDS011;14227;47.674;19.320;2023-07-31T06:36:16;11.15;;;2.20;;
26578;SDS011;14227;47.674;19.320;2023-07-31T06:38:42;6.53;;;2.00;;
26578;SDS011;14227;47.674;19.320;2023-07-31T06:41:07;3.00;;;2.13;;
26578;SDS011;14227;47.674;19.320;2023-07-31T06:43:34;4.20;;;2.17;;
26578;SDS011;14227;47.674;19.320;2023-07-31T06:46:04;6.07;;;1.90;;
26578;SDS011;14227;47.674;19.320;2023-07-31T06:48:31;5.75;;;2.08;;
26578;SDS011;14227;47.674;19.320;2023-07-31T06:50:56;9.23;;;2.50;;
26578;SDS011;14227;47.674;19.320;2023-07-31T06:53:22;4.05;;;2.15;;
26578;SDS011;14227;47.674;19.320;2023-07-31T06:55:48;7.15;;;2.35;;
26578;SDS011;14227;47.674;19.320;2023-07-31T06:58:16;4.03;;;2.00;;
26578;SDS011;14227;47.674;19.320;2023-07-31T07:00:45;4.32;;;2.17;;
26578;SDS011;14227;47.674;19.320;2023-07-31T07:03:11;5.63;;;2.25;;
26578;SDS011;14227;47.674;19.320;2023-07-31T07:05:40;6.22;;;2.40;;
26578;SDS011;14227;47.674;19.320;2023-07-31T07:08:06;4.25;;;2.00;;
26578;SDS011;14227;47.674;19.320;2023-07-31T07:10:31;4.10;;;2.50;;
26578;SDS011;14227;47.674;19.320;2023-07-31T07:12:57;7.63;;;2.25;;
26578;SDS011;14227;47.674;19.320;2023-07-31T07:15:23;4.25;;;1.80;;
26578;SDS011;14227;47.674;19.320;2023-07-31T07:17:49;3.85;;;1.85;;
26578;SDS011;14227;47.674;19.320;2023-07-31T07:20:14;6.18;;;2.20;;
26578;SDS011;14227;47.674;19.320;2023-07-31T07:22:40;6.32;;;2.33;;
26578;SDS011;14227;47.674;19.320;2023-07-31T07:25:08;5.05;;;1.88;;
26578;SDS011;14227;47.674;19.320;2023-07-31T07:27:34;8.25;;;1.83;;
26578;SDS011;14227;47.674;19.320;2023-07-31T07:30:00;3.97;;;1.70;;
26578;SDS011;14227;47.674;19.320;2023-07-31T07:32:26;6.18;;;2.00;;
26578;SDS011;14227;47.674;19.320;2023-07-31T07:34:51;4.50;;;1.70;;
26578;SDS011;14227;47.674;19.320;2023-07-31T07:37:17;5.10;;;1.75;;
26578;SDS011;14227;47.674;19.320;2023-07-31T07:39:43;2.03;;;1.52;;
26578;SDS011;14227;47.674;19.320;2023-07-31T07:42:09;4.30;;;1.80;;
26578;SDS011;14227;47.674;19.320;2023-07-31T07:44:35;3.50;;;1.60;;
26578;SDS011;14227;47.674;19.320;2023-07-31T07:47:00;5.97;;;1.65;;
26578;SDS011;14227;47.674;19.320;2023-07-31T07:49:26;2.67;;;1.35;;
26578;SDS011;14227;47.674;19.320;2023-07-31T07:51:52;4.45;;;1.70;;
26578;SDS011;14227;47.674;19.320;2023-07-31T07:54:18;3.85;;;1.60;;
26578;SDS011;14227;47.674;19.320;2023-07-31T07:56:45;4.22;;;1.80;;
26578;SDS011;14227;47.674;19.320;2023-07-31T07:59:11;4.03;;;1.58;;
26578;SDS011;14227;47.674;19.320;2023-07-31T08:01:37;5.53;;;1.50;;
26578;SDS011;14227;47.674;19.320;2023-07-31T08:04:03;5.68;;;1.63;;
26578;SDS011;14227;47.674;19.320;2023-07-31T08:06:29;3.00;;;1.58;;
26578;SDS011;14227;47.674;19.320;2023-07-31T08:08:55;2.95;;;1.50;;
26578;SDS011;14227;47.674;19.320;2023-07-31T08:11:21;6.20;;;1.33;;
26578;SDS011;14227;47.674;19.320;2023-07-31T08:13:48;5.22;;;1.83;;
26578;SDS011;14227;47.674;19.320;2023-07-31T08:16:14;5.18;;;1.40;;
26578;SDS011;14227;47.674;19.320;2023-07-31T08:18:41;8.00;;;1.50;;
26578;SDS011;14227;47.674;19.320;2023-07-31T08:21:09;4.35;;;1.40;;
26578;SDS011;14227;47.674;19.320;2023-07-31T08:23:35;5.68;;;1.40;;
26578;SDS011;14227;47.674;19.320;2023-07-31T08:26:01;3.67;;;1.75;;
26578;SDS011;14227;47.674;19.320;2023-07-31T08:28:27;3.38;;;1.20;;
26578;SDS011;14227;47.674;19.320;2023-07-31T08:30:52;4.68;;;1.20;;
26578;SDS011;14227;47.674;19.320;2023-07-31T08:33:18;4.47;;;1.40;;
26578;SDS011;14227;47.674;19.320;2023-07-31T08:35:44;3.03;;;1.30;;
26578;SDS011;14227;47.674;19.320;2023-07-31T08:38:09;5.70;;;1.52;;
26578;SDS011;14227;47.674;19.320;2023-07-31T08:40:37;1.85;;;1.10;;
26578;SDS011;14227;47.674;19.320;2023-07-31T08:43:05;3.83;;;1.17;;
26578;SDS011;14227;47.674;19.320;2023-07-31T08:45:34;2.90;;;1.40;;
26578;SDS011;14227;47.674;19.320;2023-07-31T08:48:00;2.67;;;1.42;;
26578;SDS011;14227;47.674;19.320;2023-07-31T08:50:25;5.53;;;1.40;;
26578;SDS011;14227;47.674;19.320;2023-07-31T08:52:52;3.75;;;1.25;;
26578;SDS011;14227;47.674;19.320;2023-07-31T08:55:18;4.03;;;1.42;;
26578;SDS011;14227;47.674;19.320;2023-07-31T08:57:51;4.55;;;1.30;;
26578;SDS011;14227;47.674;19.320;2023-07-31T09:00:20;3.72;;;1.58;;
26578;SDS011;14227;47.674;19.320;2023-07-31T09:02:51;8.77;;;1.60;;
26578;SDS011;14227;47.674;19.320;2023-07-31T09:05:28;3.42;;;1.38;;
26578;SDS011;14227;47.674;19.320;2023-07-31T09:08:02;4.43;;;1.40;;
26578;SDS011;14227;47.674;19.320;2023-07-31T09:10:30;3.13;;;1.42;;
26578;SDS011;14227;47.674;19.320;2023-07-31T09:12:56;7.13;;;1.15;;
26578;SDS011;14227;47.674;19.320;2023-07-31T09:15:23;5.63;;;1.67;;
26578;SDS011;14227;47.674;19.320;2023-07-31T09:17:53;4.25;;;1.40;;
26578;SDS011;14227;47.674;19.320;2023-07-31T09:20:27;5.32;;;1.55;;
26578;SDS011;14227;47.674;19.320;2023-07-31T09:22:54;3.72;;;1.48;;
26578;SDS011;14227;47.674;19.320;2023-07-31T09:25:21;6.03;;;1.60;;
26578;SDS011;14227;47.674;19.320;2023-07-31T09:30:44;5.20;;;1.40;;
26578;SDS011;14227;47.674;19.320;2023-07-31T09:33:15;3.63;;;1.65;;
26578;SDS011;14227;47.674;19.320;2023-07-31T09:35:41;4.18;;;1.33;;
26578;SDS011;14227;47.674;19.320;2023-07-31T09:38:09;5.70;;;1.30;;
26578;SDS011;14227;47.674;19.320;2023-07-31T09:40:36;3.42;;;1.45;;
26578;SDS011;14227;47.674;19.320;2023-07-31T09:43:03;4.97;;;1.10;;
26578;SDS011;14227;47.674;19.320;2023-07-31T09:45:30;2.65;;;1.42;;
26578;SDS011;14227;47.674;19.320;2023-07-31T09:48:01;4.18;;;1.83;;
26578;SDS011;14227;47.674;19.320;2023-07-31T09:50:28;4.53;;;1.55;;
26578;SDS011;14227;47.674;19.320;2023-07-31T09:52:55;3.90;;;1.40;;
26578;SDS011;14227;47.674;19.320;2023-07-31T09:55:20;4.28;;;1.40;;
26578;SDS011;14227;47.674;19.320;2023-07-31T09:57:49;3.85;;;1.08;;
26578;SDS011;14227;47.674;19.320;2023-07-31T10:00:18;4.30;;;1.27;;
26578;SDS011;14227;47.674;19.320;2023-07-31T10:02:47;4.78;;;1.42;;
26578;SDS011;14227;47.674;19.320;2023-07-31T10:05:14;2.67;;;1.13;;
26578;SDS011;14227;47.674;19.320;2023-07-31T10:07:45;3.22;;;1.40;;
26578;SDS011;14227;47.674;19.320;2023-07-31T10:10:20;3.58;;;1.30;;
26578;SDS011;14227;47.674;19.320;2023-07-31T10:12:48;4.88;;;1.40;;
26578;SDS011;14227;47.674;19.320;2023-07-31T10:15:15;5.40;;;1.48;;
26578;SDS011;14227;47.674;19.320;2023-07-31T10:17:41;8.35;;;1.40;;
26578;SDS011;14227;47.674;19.320;2023-07-31T10:20:07;3.42;;;1.48;;
26578;SDS011;14227;47.674;19.320;2023-07-31T10:22:34;2.92;;;1.20;;
26578;SDS011;14227;47.674;19.320;2023-07-31T10:25:00;4.20;;;1.42;;
26578;SDS011;14227;47.674;19.320;2023-07-31T10:27:26;2.75;;;1.50;;
26578;SDS011;14227;47.674;19.320;2023-07-31T10:29:53;5.68;;;1.58;;
26578;SDS011;14227;47.674;19.320;2023-07-31T10:32:20;3.45;;;1.50;;
26578;SDS011;14227;47.674;19.320;2023-07-31T10:34:47;2.13;;;1.27;;
26578;SDS011;14227;47.674;19.320;2023-07-31T10:37:27;6.15;;;1.70;;
26578;SDS011;14227;47.674;19.320;2023-07-31T10:40:04;2.70;;;1.52;;
26578;SDS011;14227;47.674;19.320;2023-07-31T10:42:35;3.70;;;1.70;;
26578;SDS011;14227;47.674;19.320;2023-07-31T10:47:31;5.43;;;1.63;;
26578;SDS011;14227;47.674;19.320;2023-07-31T10:52:44;5.68;;;1.45;;
26578;SDS011;14227;47.674;19.320;2023-07-31T10:58:18;4.57;;;1.88;;
26578;SDS011;14227;47.674;19.320;2023-07-31T11:00:46;2.78;;;1.10;;
26578;SDS011;14227;47.674;19.320;2023-07-31T11:03:15;2.70;;;1.40;;
26578;SDS011;14227;47.674;19.320;2023-07-31T11:10:51;13.48;;;2.28;;
26578;SDS011;14227;47.674;19.320;2023-07-31T11:13:29;8.25;;;1.45;;
26578;SDS011;14227;47.674;19.320;2023-07-31T11:16:23;10.23;;;1.92;;
26578;SDS011;14227;47.674;19.320;2023-07-31T11:18:49;8.25;;;1.55;;
26578;SDS011;14227;47.674;19.320;2023-07-31T11:21:20;3.28;;;1.58;;
26578;SDS011;14227;47.674;19.320;2023-07-31T11:23:51;2.72;;;1.60;;
26578;SDS011;14227;47.674;19.320;2023-07-31T11:26:18;2.75;;;1.38;;
26578;SDS011;14227;47.674;19.320;2023-07-31T11:28:47;7.75;;;1.70;;
26578;SDS011;14227;47.674;19.320;2023-07-31T11:31:14;4.55;;;1.45;;
26578;SDS011;14227;47.674;19.320;2023-07-31T11:33:40;5.95;;;1.80;;
26578;SDS011;14227;47.674;19.320;2023-07-31T11:36:06;7.20;;;1.30;;
26578;SDS011;14227;47.674;19.320;2023-07-31T11:38:32;4.22;;;1.30;;
26578;SDS011;14227;47.674;19.320;2023-07-31T11:40:59;4.45;;;1.60;;
26578;SDS011;14227;47.674;19.320;2023-07-31T11:43:27;5.50;;;1.20;;
26578;SDS011;14227;47.674;19.320;2023-07-31T11:45:57;2.38;;;1.20;;
26578;SDS011;14227;47.674;19.320;2023-07-31T11:48:28;4.10;;;1.55;;
26578;SDS011;14227;47.674;19.320;2023-07-31T11:51:13;3.20;;;1.60;;
26578;SDS011;14227;47.674;19.320;2023-07-31T11:53:50;2.58;;;1.17;;
26578;SDS011;14227;47.674;19.320;2023-07-31T11:56:18;4.55;;;1.30;;
26578;SDS011;14227;47.674;19.320;2023-07-31T11:58:46;2.05;;;1.40;;
26578;SDS011;14227;47.674;19.320;2023-07-31T12:01:14;4.07;;;1.67;;
26578;SDS011;14227;47.674;19.320;2023-07-31T12:03:42;5.47;;;1.33;;
26578;SDS011;14227;47.674;19.320;2023-07-31T12:06:09;6.65;;;1.52;;
26578;SDS011;14227;47.674;19.320;2023-07-31T12:08:36;4.35;;;1.50;;
26578;SDS011;14227;47.674;19.320;2023-07-31T12:11:06;4.15;;;1.42;;
26578;SDS011;14227;47.674;19.320;2023-07-31T12:13:34;8.73;;;1.48;;
26578;SDS011;14227;47.674;19.320;2023-07-31T12:16:01;5.82;;;1.30;;
26578;SDS011;14227;47.674;19.320;2023-07-31T12:18:29;2.55;;;1.23;;
26578;SDS011;14227;47.674;19.320;2023-07-31T12:21:00;5.30;;;1.80;;
26578;SDS011;14227;47.674;19.320;2023-07-31T12:23:30;5.82;;;1.30;;
26578;SDS011;14227;47.674;19.320;2023-07-31T12:26:04;3.35;;;1.27;;
26578;SDS011;14227;47.674;19.320;2023-07-31T12:28:30;2.15;;;1.23;;
26578;SDS011;14227;47.674;19.320;2023-07-31T12:31:00;4.35;;;1.40;;
26578;SDS011;14227;47.674;19.320;2023-07-31T12:33:33;3.55;;;1.23;;
26578;SDS011;14227;47.674;19.320;2023-07-31T12:36:04;2.17;;;1.00;;
26578;SDS011;14227;47.674;19.320;2023-07-31T12:38:32;4.68;;;1.30;;
26578;SDS011;14227;47.674;19.320;2023-07-31T12:40:58;3.67;;;1.42;;
26578;SDS011;14227;47.674;19.320;2023-07-31T12:43:24;3.05;;;1.30;;
26578;SDS011;14227;47.674;19.320;2023-07-31T12:45:50;7.35;;;1.10;;
26578;SDS011;14227;47.674;19.320;2023-07-31T12:48:16;4.63;;;1.38;;
26578;SDS011;14227;47.674;19.320;2023-07-31T12:50:41;3.65;;;1.15;;
26578;SDS011;14227;47.674;19.320;2023-07-31T12:53:07;2.80;;;1.10;;
26578;SDS011;14227;47.674;19.320;2023-07-31T12:55:33;4.90;;;1.38;;
26578;SDS011;14227;47.674;19.320;2023-07-31T12:58:02;5.68;;;1.48;;
26578;SDS011;14227;47.674;19.320;2023-07-31T13:00:28;5.80;;;1.38;;
26578;SDS011;14227;47.674;19.320;2023-07-31T13:02:54;4.50;;;1.20;;
26578;SDS011;14227;47.674;19.320;2023-07-31T13:05:20;6.05;;;1.38;;
26578;SDS011;14227;47.674;19.320;2023-07-31T13:07:46;5.10;;;1.15;;
26578;SDS011;14227;47.674;19.320;2023-07-31T13:10:12;2.38;;;1.40;;
26578;SDS011;14227;47.674;19.320;2023-07-31T13:12:38;5.32;;;1.52;;
26578;SDS011;14227;47.674;19.320;2023-07-31T13:15:06;3.35;;;1.52;;
26578;SDS011;14227;47.674;19.320;2023-07-31T13:17:32;2.05;;;1.15;;
26578;SDS011;14227;47.674;19.320;2023-07-31T13:19:58;4.13;;;1.27;;
26578;SDS011;14227;47.674;19.320;2023-07-31T13:22:24;4.75;;;1.30;;
26578;SDS011;14227;47.674;19.320;2023-07-31T13:24:53;3.28;;;1.40;;
26578;SDS011;14227;47.674;19.320;2023-07-31T13:27:19;1.48;;;1.08;;
26578;SDS011;14227;47.674;19.320;2023-07-31T13:29:47;5.13;;;1.20;;
26578;SDS011;14227;47.674;19.320;2023-07-31T13:32:17;2.25;;;1.52;;
26578;SDS011;14227;47.674;19.320;2023-07-31T13:34:44;3.90;;;1.38;;
26578;SDS011;14227;47.674;19.320;2023-07-31T13:37:10;1.92;;;1.20;;
26578;SDS011;14227;47.674;19.320;2023-07-31T13:39:36;2.63;;;1.30;;
26578;SDS011;14227;47.674;19.320;2023-07-31T13:42:05;4.28;;;1.30;;
26578;SDS011;14227;47.674;19.320;2023-07-31T13:44:36;3.22;;;1.40;;
26578;SDS011;14227;47.674;19.320;2023-07-31T13:47:03;2.38;;;1.30;;
26578;SDS011;14227;47.674;19.320;2023-07-31T13:49:29;5.57;;;1.50;;
26578;SDS011;14227;47.674;19.320;2023-07-31T13:51:55;2.67;;;1.40;;
26578;SDS011;14227;47.674;19.320;2023-07-31T13:54:22;2.28;;;1.27;;
26578;SDS011;14227;47.674;19.320;2023-07-31T13:56:48;9.20;;;1.58;;
26578;SDS011;14227;47.674;19.320;2023-07-31T13:59:14;7.25;;;1.40;;
26578;SDS011;14227;47.674;19.320;2023-07-31T14:01:41;1.88;;;1.00;;
26578;SDS011;14227;47.674;19.320;2023-07-31T14:04:08;4.95;;;1.40;;
26578;SDS011;14227;47.674;19.320;2023-07-31T14:06:34;4.60;;;1.50;;
26578;SDS011;14227;47.674;19.320;2023-07-31T14:09:00;1.95;;;1.13;;
26578;SDS011;14227;47.674;19.320;2023-07-31T14:11:26;4.05;;;1.30;;
26578;SDS011;14227;47.674;19.320;2023-07-31T14:13:51;5.53;;;1.45;;
26578;SDS011;14227;47.674;19.320;2023-07-31T14:16:17;3.55;;;1.45;;
26578;SDS011;14227;47.674;19.320;2023-07-31T14:18:43;3.63;;;1.33;;
26578;SDS011;14227;47.674;19.320;2023-07-31T14:21:10;2.30;;;1.38;;
26578;SDS011;14227;47.674;19.320;2023-07-31T14:23:37;2.20;;;1.30;;
26578;SDS011;14227;47.674;19.320;2023-07-31T14:26:02;2.70;;;1.35;;
26578;SDS011;14227;47.674;19.320;2023-07-31T14:28:28;4.15;;;1.60;;
26578;SDS011;14227;47.674;19.320;2023-07-31T14:30:54;2.08;;;1.50;;
26578;SDS011;14227;47.674;19.320;2023-07-31T14:33:19;4.00;;;1.40;;
26578;SDS011;14227;47.674;19.320;2023-07-31T14:35:45;2.72;;;1.10;;
26578;SDS011;14227;47.674;19.320;2023-07-31T14:38:11;4.97;;;1.27;;
26578;SDS011;14227;47.674;19.320;2023-07-31T14:40:37;5.10;;;1.30;;
26578;SDS011;14227;47.674;19.320;2023-07-31T14:43:03;2.35;;;1.50;;
26578;SDS011;14227;47.674;19.320;2023-07-31T14:45:29;3.38;;;1.45;;
26578;SDS011;14227;47.674;19.320;2023-07-31T14:47:55;1.67;;;1.20;;